Time;durP1;ratioP1;P1;durP2;ratioP2;P2;SDS_P1;SDS_P2;PMS_P1;PMS_P2;Temp;Humidity;BMP_temperature;BMP_pressure;BME280_temperature;BME280_humidity;BME280_pressure;Samples;Min_cycle;Max_cycle;Signal;HPM_P1;HPM_P2
2023/05/21 00:01:49;;;;;;;0.10;0.10;;;15.70;99.90;;;;;;5001723;28;20042;-66
2023/05/21 00:04:16;;;;;;;0.10;0.10;;;15.80;99.90;;;;;;5005862;28;20046;-67
2023/05/21 00:06:41;;;;;;;0.20;0.20;;;15.80;99.90;;;;;;5002488;28;20046;-66
2023/05/21 00:09:07;;;;;;;0.45;0.38;;;15.70;99.90;;;;;;5007550;28;20042;-67
2023/05/21 00:11:33;;;;;;;0.20;0.20;;;15.80;99.90;;;;;;5012021;28;20051;-67
2023/05/21 00:13:58;;;;;;;1.55;0.63;;;15.80;99.90;;;;;;5008324;28;20049;-67
2023/05/21 00:16:24;;;;;;;0.00;0.00;;;15.70;99.90;;;;;;5000940;28;20034;-66
2023/05/21 00:18:50;;;;;;;0.00;0.00;;;15.70;99.90;;;;;;5010676;28;20073;-66
2023/05/21 00:21:16;;;;;;;0.20;0.20;;;15.70;99.90;;;;;;5002241;28;20084;-67
2023/05/21 00:23:46;;;;;;;0.20;0.20;;;15.80;99.90;;;;;;5008009;28;20034;-66
2023/05/21 00:26:12;;;;;;;0.88;0.70;;;15.80;99.90;;;;;;5007294;28;20072;-66
2023/05/21 00:28:38;;;;;;;1.33;0.57;;;15.70;99.90;;;;;;5002235;28;20491;-67
2023/05/21 00:31:03;;;;;;;0.20;0.20;;;15.70;99.90;;;;;;5007244;28;20084;-66
2023/05/21 00:33:29;;;;;;;0.00;0.00;;;15.80;99.90;;;;;;5005900;28;20466;-66
2023/05/21 00:35:56;;;;;;;0.00;0.00;;;15.70;99.90;;;;;;5007789;28;20409;-66
2023/05/21 00:38:22;;;;;;;0.73;0.60;;;15.70;99.90;;;;;;5011434;28;20042;-66
2023/05/21 00:40:48;;;;;;;0.00;0.00;;;15.70;99.90;;;;;;4999250;28;20402;-66
2023/05/21 00:43:14;;;;;;;0.17;0.17;;;15.70;99.90;;;;;;5005610;28;20050;-66
2023/05/21 00:45:45;;;;;;;0.10;0.10;;;15.70;99.90;;;;;;5002474;28;20108;-66
2023/05/21 00:48:12;;;;;;;0.00;0.00;;;15.70;99.90;;;;;;5006252;28;20042;-66
2023/05/21 00:50:40;;;;;;;4.57;0.85;;;15.70;99.90;;;;;;5010617;28;20489;-66
2023/05/21 00:53:09;;;;;;;0.30;0.30;;;15.70;99.90;;;;;;5007033;28;20041;-66
2023/05/21 00:55:38;;;;;;;0.75;0.47;;;15.70;99.90;;;;;;4998254;28;20034;-66
2023/05/21 00:58:05;;;;;;;0.25;0.25;;;15.60;99.90;;;;;;5002133;28;20497;-66
2023/05/21 01:00:34;;;;;;;0.32;0.30;;;15.60;99.90;;;;;;5007829;28;20042;-66
2023/05/21 01:03:00;;;;;;;0.15;0.15;;;15.60;99.90;;;;;;4996072;28;20046;-66
2023/05/21 01:05:29;;;;;;;0.00;0.00;;;15.60;99.90;;;;;;5001688;28;20052;-66
2023/05/21 01:07:56;;;;;;;0.00;0.00;;;15.60;99.90;;;;;;5000671;28;20052;-66
2023/05/21 01:10:23;;;;;;;2.85;0.43;;;15.70;99.90;;;;;;5004225;28;20046;-66
2023/05/21 01:12:51;;;;;;;0.00;0.00;;;15.70;99.90;;;;;;5003568;28;20061;-66
2023/05/21 01:15:17;;;;;;;0.00;0.00;;;15.60;99.90;;;;;;4998206;28;20054;-66
2023/05/21 01:17:44;;;;;;;0.10;0.10;;;15.60;99.90;;;;;;5005933;28;20049;-66
2023/05/21 01:20:10;;;;;;;0.10;0.10;;;15.60;99.90;;;;;;5003246;28;20042;-66
2023/05/21 01:23:05;;;;;;;0.65;0.52;;;15.70;99.90;;;;;;5007823;28;20042;-66
2023/05/21 01:25:31;;;;;;;0.10;0.10;;;15.60;99.90;;;;;;5003148;28;20049;-66
2023/05/21 01:27:57;;;;;;;0.75;0.60;;;15.60;99.90;;;;;;5002277;28;20049;-66
2023/05/21 01:30:24;;;;;;;0.20;0.20;;;15.60;99.90;;;;;;5007222;28;20045;-66
2023/05/21 01:33:02;;;;;;;0.28;0.28;;;15.70;99.90;;;;;;5002054;28;20053;-66
2023/05/21 01:35:38;;;;;;;0.00;0.00;;;15.60;99.90;;;;;;5010115;28;20045;-66
2023/05/21 01:38:21;;;;;;;0.00;0.00;;;15.60;99.90;;;;;;5007031;28;20045;-66
2023/05/21 01:40:54;;;;;;;0.10;0.10;;;15.50;99.90;;;;;;4999217;28;20123;-66
2023/05/21 01:43:22;;;;;;;0.10;0.10;;;15.60;99.90;;;;;;5004917;28;20054;-66
2023/05/21 01:45:51;;;;;;;0.00;0.00;;;15.50;99.90;;;;;;5007017;28;20140;-66
2023/05/21 01:48:17;;;;;;;0.10;0.10;;;15.60;99.90;;;;;;5005970;28;20430;-66
2023/05/21 01:50:45;;;;;;;0.08;0.08;;;15.60;99.90;;;;;;5003791;28;20116;-66
2023/05/21 01:53:10;;;;;;;0.15;0.15;;;15.50;99.90;;;;;;5003309;28;20038;-66
2023/05/21 01:55:40;;;;;;;0.10;0.10;;;15.60;99.90;;;;;;5003971;28;20049;-66
2023/05/21 01:58:07;;;;;;;3.60;1.38;;;15.50;99.90;;;;;;4999752;28;20045;-66
2023/05/21 02:00:33;;;;;;;0.52;0.52;;;15.50;99.90;;;;;;4998637;28;20042;-66
2023/05/21 02:02:59;;;;;;;0.00;0.00;;;15.50;99.90;;;;;;5004106;28;20042;-66
2023/05/21 02:05:24;;;;;;;0.00;0.00;;;15.50;99.90;;;;;;5008456;28;20044;-66
2023/05/21 02:07:51;;;;;;;0.08;0.08;;;15.40;99.90;;;;;;5005363;28;20784;-65
2023/05/21 02:10:17;;;;;;;0.10;0.10;;;15.50;99.90;;;;;;5006583;28;20417;-66
2023/05/21 02:12:43;;;;;;;0.00;0.00;;;15.50;99.90;;;;;;5008326;28;20046;-66
2023/05/21 02:15:09;;;;;;;0.03;0.03;;;15.40;99.90;;;;;;4998528;28;20041;-66
2023/05/21 02:17:37;;;;;;;0.00;0.00;;;15.40;99.90;;;;;;4994901;28;20038;-66
2023/05/21 02:20:10;;;;;;;0.00;0.00;;;15.40;99.90;;;;;;5034225;28;20097;-66
2023/05/21 02:22:39;;;;;;;;;;;15.40;99.90;;;;;;5008813;28;20827;-66
2023/05/21 02:25:06;;;;;;;0.00;0.00;;;15.40;99.90;;;;;;5005174;28;20405;-66
2023/05/21 02:27:33;;;;;;;6.03;1.10;;;15.50;99.90;;;;;;5001778;28;20071;-66
2023/05/21 02:30:00;;;;;;;0.28;0.28;;;15.40;99.90;;;;;;5011913;28;20060;-66
2023/05/21 02:32:25;;;;;;;0.20;0.20;;;15.50;99.90;;;;;;5007192;28;20038;-66
2023/05/21 02:34:51;;;;;;;0.00;0.00;;;15.50;99.90;;;;;;5000385;28;20042;-66
2023/05/21 02:37:18;;;;;;;0.10;0.10;;;15.40;99.90;;;;;;5000671;28;20046;-66
2023/05/21 02:39:44;;;;;;;0.20;0.20;;;15.40;99.90;;;;;;5015672;28;20374;-66
2023/05/21 02:42:10;;;;;;;0.05;0.05;;;15.40;99.90;;;;;;5005062;28;20050;-67
2023/05/21 02:44:35;;;;;;;0.32;0.32;;;15.40;99.90;;;;;;5004778;28;20038;-66
2023/05/21 02:47:01;;;;;;;0.00;0.00;;;15.40;99.90;;;;;;5010765;28;20532;-66
2023/05/21 02:49:27;;;;;;;0.20;0.20;;;15.30;99.90;;;;;;5006735;28;20398;-66
2023/05/21 02:51:52;;;;;;;0.10;0.10;;;15.30;99.90;;;;;;5006429;28;20042;-66
2023/05/21 02:54:18;;;;;;;0.00;0.00;;;15.30;99.90;;;;;;5013331;28;20041;-66
2023/05/21 02:56:43;;;;;;;1.00;0.25;;;15.30;99.90;;;;;;5001011;28;20043;-67
2023/05/21 02:59:09;;;;;;;0.00;0.00;;;15.30;99.90;;;;;;5007152;28;20042;-67
2023/05/21 03:01:34;;;;;;;0.05;0.05;;;15.30;99.90;;;;;;5006219;28;20699;-67
2023/05/21 03:04:00;;;;;;;0.10;0.10;;;15.30;99.90;;;;;;5004891;28;20385;-67
2023/05/21 03:06:25;;;;;;;0.77;0.77;;;15.30;99.90;;;;;;5012382;28;20045;-67
2023/05/21 03:08:51;;;;;;;0.10;0.10;;;15.30;99.90;;;;;;5012739;28;20046;-66
2023/05/21 03:11:18;;;;;;;0.32;0.32;;;15.20;99.90;;;;;;5001195;28;20081;-67
2023/05/21 03:13:44;;;;;;;0.10;0.10;;;15.20;99.90;;;;;;5003479;28;20429;-67
2023/05/21 03:16:10;;;;;;;0.90;0.38;;;15.20;99.90;;;;;;5002744;28;20046;-67
2023/05/21 03:18:35;;;;;;;0.00;0.00;;;15.20;99.90;;;;;;5007461;28;20397;-66
2023/05/21 03:21:01;;;;;;;0.22;0.20;;;15.20;99.90;;;;;;5005759;28;20043;-67
2023/05/21 03:23:26;;;;;;;0.10;0.10;;;15.20;99.90;;;;;;5035001;28;20054;-67
2023/05/21 03:25:52;;;;;;;0.10;0.10;;;15.10;99.90;;;;;;5001994;28;20073;-67
2023/05/21 03:28:18;;;;;;;0.30;0.30;;;15.10;99.90;;;;;;5003328;28;20064;-67
2023/05/21 03:30:48;;;;;;;0.30;0.20;;;15.10;99.90;;;;;;5007554;28;20050;-67
2023/05/21 03:33:14;;;;;;;0.45;0.45;;;15.10;99.90;;;;;;5008063;28;20107;-67
2023/05/21 03:35:40;;;;;;;0.08;0.08;;;15.10;99.90;;;;;;5000990;28;20405;-67
2023/05/21 03:38:05;;;;;;;0.10;0.10;;;15.10;99.90;;;;;;5009735;28;20128;-67
2023/05/21 03:40:31;;;;;;;0.20;0.20;;;15.10;99.90;;;;;;4997234;28;20052;-67
2023/05/21 03:42:56;;;;;;;0.10;0.10;;;14.90;99.90;;;;;;4999825;28;20045;-67
2023/05/21 03:45:22;;;;;;;0.40;0.30;;;14.90;99.90;;;;;;4998682;28;20069;-67
2023/05/21 03:47:48;;;;;;;0.32;0.32;;;14.80;99.90;;;;;;5004620;28;20038;-67
2023/05/21 03:50:14;;;;;;;0.25;0.25;;;14.80;99.90;;;;;;4999011;28;20133;-67
2023/05/21 03:52:40;;;;;;;0.40;0.40;;;14.80;99.90;;;;;;5000012;28;20037;-67
2023/05/21 03:55:06;;;;;;;0.20;0.20;;;14.80;99.90;;;;;;5003430;28;20046;-67
2023/05/21 03:57:31;;;;;;;0.05;0.05;;;14.70;99.90;;;;;;5000197;28;20108;-67
2023/05/21 03:59:57;;;;;;;4.57;0.90;;;14.80;99.90;;;;;;4994448;28;20149;-67
2023/05/21 04:02:25;;;;;;;0.10;0.10;;;14.70;99.90;;;;;;5007582;28;20062;-67
2023/05/21 04:04:52;;;;;;;0.32;0.32;;;14.80;99.90;;;;;;5001844;28;20042;-67
2023/05/21 04:07:18;;;;;;;0.10;0.10;;;14.80;99.90;;;;;;5005989;28;20042;-67
2023/05/21 04:09:45;;;;;;;0.90;0.55;;;14.80;99.90;;;;;;5009690;28;20057;-67
2023/05/21 04:12:10;;;;;;;0.00;0.00;;;14.80;99.90;;;;;;5002317;28;20088;-67
2023/05/21 04:14:36;;;;;;;0.20;0.20;;;14.80;99.90;;;;;;5010426;28;20453;-67
2023/05/21 04:17:04;;;;;;;0.28;0.28;;;14.80;99.90;;;;;;5002563;28;20049;-68
2023/05/21 04:19:32;;;;;;;0.55;0.45;;;14.80;99.90;;;;;;5002996;28;20501;-68
2023/05/21 04:21:58;;;;;;;0.10;0.10;;;14.80;99.90;;;;;;5004684;28;20045;-68
2023/05/21 04:24:24;;;;;;;0.10;0.10;;;14.70;99.90;;;;;;5005226;28;20050;-67
2023/05/21 04:26:50;;;;;;;0.10;0.10;;;14.70;99.90;;;;;;5000950;28;20026;-67
2023/05/21 04:29:16;;;;;;;0.47;0.47;;;14.70;99.90;;;;;;5004676;28;20085;-67
2023/05/21 04:31:42;;;;;;;0.45;0.43;;;14.70;99.90;;;;;;5009747;28;20045;-68
2023/05/21 04:34:08;;;;;;;1.00;0.95;;;14.60;99.90;;;;;;5005374;28;20046;-68
2023/05/21 04:36:34;;;;;;;0.00;0.00;;;14.70;99.90;;;;;;5003747;28;20057;-67
2023/05/21 04:39:00;;;;;;;0.20;0.20;;;14.70;99.90;;;;;;5010520;28;20124;-68
2023/05/21 04:41:25;;;;;;;0.10;0.10;;;14.70;99.90;;;;;;5005039;28;20125;-67
2023/05/21 04:43:54;;;;;;;0.10;0.10;;;14.70;99.90;;;;;;5005769;28;20041;-68
2023/05/21 04:46:24;;;;;;;0.55;0.55;;;14.70;99.90;;;;;;5005228;28;20409;-68
2023/05/21 04:48:53;;;;;;;0.00;0.00;;;14.70;99.90;;;;;;5008768;28;20513;-67
2023/05/21 04:51:23;;;;;;;0.20;0.20;;;14.70;99.90;;;;;;5003192;28;20046;-68
2023/05/21 04:53:49;;;;;;;0.90;0.85;;;14.70;99.90;;;;;;5002575;28;20046;-68
2023/05/21 04:56:17;;;;;;;0.28;0.17;;;14.80;99.90;;;;;;5002225;28;20111;-68
2023/05/21 04:58:42;;;;;;;0.00;0.00;;;14.70;99.90;;;;;;5008393;28;20069;-68
2023/05/21 05:01:08;;;;;;;0.10;0.10;;;14.70;99.90;;;;;;5005641;28;20089;-68
2023/05/21 05:03:34;;;;;;;0.15;0.15;;;14.70;99.90;;;;;;5007014;28;20041;-68
2023/05/21 05:06:03;;;;;;;0.55;0.43;;;14.70;99.90;;;;;;5000161;28;20050;-68
2023/05/21 05:08:28;;;;;;;0.47;0.47;;;14.70;99.90;;;;;;5006343;28;20042;-67
2023/05/21 05:10:54;;;;;;;0.70;0.52;;;14.70;99.90;;;;;;5004407;28;20060;-68
2023/05/21 05:13:20;;;;;;;0.03;0.03;;;14.70;99.90;;;;;;4999978;28;20042;-68
2023/05/21 05:15:45;;;;;;;0.80;0.80;;;14.70;99.90;;;;;;5000332;28;20127;-68
2023/05/21 05:18:12;;;;;;;0.30;0.30;;;14.70;99.90;;;;;;5005204;28;20076;-68
2023/05/21 05:20:37;;;;;;;0.55;0.55;;;14.70;99.90;;;;;;5002271;28;20050;-68
2023/05/21 05:23:03;;;;;;;1.55;1.45;;;14.70;99.90;;;;;;5007802;28;20042;-68
2023/05/21 05:25:28;;;;;;;0.75;0.75;;;14.70;99.90;;;;;;4997458;28;20459;-68
2023/05/21 05:27:54;;;;;;;0.10;0.10;;;14.70;99.90;;;;;;5001198;28;20049;-68
2023/05/21 05:30:20;;;;;;;0.00;0.00;;;14.70;99.90;;;;;;5002952;28;20046;-68
2023/05/21 05:32:45;;;;;;;0.00;0.00;;;14.70;99.90;;;;;;5007448;28;20053;-68
2023/05/21 05:35:11;;;;;;;2.50;0.40;;;14.80;99.90;;;;;;5000948;28;20038;-68
2023/05/21 05:37:37;;;;;;;1.45;1.35;;;14.80;99.90;;;;;;5007923;28;20379;-68
2023/05/21 05:40:04;;;;;;;0.00;0.00;;;14.80;99.90;;;;;;5007787;28;20046;-68
2023/05/21 05:42:30;;;;;;;0.10;0.10;;;14.80;99.90;;;;;;5001381;28;20030;-68
2023/05/21 05:44:55;;;;;;;0.20;0.20;;;14.80;99.90;;;;;;4997048;28;20060;-68
2023/05/21 05:47:21;;;;;;;3.63;0.65;;;14.90;99.90;;;;;;5008503;28;20053;-68
2023/05/21 05:49:47;;;;;;;0.30;0.30;;;14.80;99.90;;;;;;4999757;28;20041;-68
2023/05/21 05:52:13;;;;;;;0.00;0.00;;;14.90;99.90;;;;;;5005010;28;20048;-68
2023/05/21 05:54:38;;;;;;;1.20;0.50;;;14.90;99.90;;;;;;4999210;28;20381;-68
2023/05/21 05:57:04;;;;;;;0.08;0.08;;;14.90;99.90;;;;;;4995827;28;20042;-68
2023/05/21 05:59:32;;;;;;;0.10;0.10;;;14.90;99.90;;;;;;5009997;28;20143;-68
2023/05/21 06:01:58;;;;;;;3.17;1.58;;;14.90;99.90;;;;;;5008829;28;20406;-68
2023/05/21 06:04:24;;;;;;;0.30;0.30;;;15.00;99.90;;;;;;5002308;28;20381;-68
2023/05/21 06:06:51;;;;;;;0.43;0.43;;;15.00;99.90;;;;;;5005628;28;20033;-68
2023/05/21 06:09:16;;;;;;;0.10;0.10;;;15.00;99.90;;;;;;5008656;28;20161;-67
2023/05/21 06:11:42;;;;;;;0.00;0.00;;;15.00;99.90;;;;;;5024310;28;20100;-67
2023/05/21 06:14:08;;;;;;;0.73;0.73;;;15.00;99.90;;;;;;5001009;28;20050;-68
2023/05/21 06:16:33;;;;;;;0.30;0.30;;;14.90;99.90;;;;;;5000986;28;20038;-68
2023/05/21 06:18:59;;;;;;;0.30;0.30;;;15.00;99.90;;;;;;5005660;28;20045;-68
2023/05/21 06:21:25;;;;;;;0.38;0.38;;;15.00;99.90;;;;;;4997006;28;20057;-68
2023/05/21 06:23:50;;;;;;;0.32;0.32;;;15.00;99.90;;;;;;5006306;28;20469;-68
2023/05/21 06:26:18;;;;;;;0.32;0.32;;;15.00;99.90;;;;;;5005961;28;20060;-68
2023/05/21 06:28:43;;;;;;;0.00;0.00;;;15.00;99.90;;;;;;5008771;28;20409;-68
2023/05/21 06:31:10;;;;;;;0.25;0.25;;;15.00;99.90;;;;;;5003850;28;20045;-69
2023/05/21 06:33:36;;;;;;;1.27;0.98;;;15.00;99.90;;;;;;5011148;28;20113;-68
2023/05/21 06:36:01;;;;;;;0.10;0.10;;;15.10;99.90;;;;;;4999051;28;20129;-68
2023/05/21 06:38:27;;;;;;;0.00;0.00;;;15.20;99.90;;;;;;5001566;28;20103;-69
2023/05/21 06:40:53;;;;;;;20.42;0.80;;;15.20;99.90;;;;;;5008185;28;20049;-68
2023/05/21 06:43:18;;;;;;;0.08;0.08;;;15.30;99.90;;;;;;5028431;28;20057;-68
2023/05/21 06:45:44;;;;;;;0.00;0.00;;;15.30;99.90;;;;;;5008830;28;20042;-68
2023/05/21 06:48:10;;;;;;;0.82;0.82;;;15.40;99.90;;;;;;4998870;28;20387;-68
2023/05/21 06:50:36;;;;;;;0.10;0.10;;;15.50;99.90;;;;;;5028556;28;20057;-68
2023/05/21 06:53:02;;;;;;;1.70;0.80;;;15.50;99.90;;;;;;5032372;28;20061;-68
2023/05/21 06:55:28;;;;;;;0.15;0.15;;;15.60;99.90;;;;;;5008400;28;20398;-68
2023/05/21 06:57:55;;;;;;;3.63;0.63;;;15.70;99.90;;;;;;5001189;28;20181;-68
2023/05/21 07:00:20;;;;;;;0.80;0.80;;;15.80;99.90;;;;;;5012277;28;20042;-68
2023/05/21 07:02:46;;;;;;;0.08;0.08;;;15.90;99.90;;;;;;5010333;28;20053;-68
2023/05/21 07:05:11;;;;;;;0.30;0.30;;;16.00;99.90;;;;;;5000730;28;20122;-67
2023/05/21 07:07:37;;;;;;;0.40;0.40;;;15.90;99.90;;;;;;4996075;28;20410;-69
2023/05/21 07:10:03;;;;;;;0.08;0.08;;;15.90;99.90;;;;;;5006343;28;20038;-68
2023/05/21 07:12:28;;;;;;;0.10;0.10;;;15.90;99.90;;;;;;5007240;28;20046;-68
2023/05/21 07:14:54;;;;;;;0.00;0.00;;;16.10;99.90;;;;;;5009212;28;20053;-67
2023/05/21 07:17:19;;;;;;;0.20;0.20;;;16.10;99.90;;;;;;5000612;28;20506;-68
2023/05/21 07:19:45;;;;;;;1.75;0.85;;;16.20;99.90;;;;;;5002500;28;20076;-67
2023/05/21 07:22:11;;;;;;;0.00;0.00;;;16.40;99.90;;;;;;4999143;28;20046;-66
2023/05/21 07:24:37;;;;;;;0.00;0.00;;;16.40;99.90;;;;;;5043424;28;20052;-66
2023/05/21 07:27:03;;;;;;;0.22;0.22;;;16.40;99.90;;;;;;5009102;28;20457;-67
2023/05/21 07:29:28;;;;;;;0.55;0.55;;;16.40;99.90;;;;;;5008941;28;20081;-67
2023/05/21 07:31:54;;;;;;;0.10;0.10;;;16.50;99.90;;;;;;5005478;28;20050;-67
2023/05/21 07:34:20;;;;;;;0.00;0.00;;;16.60;99.90;;;;;;5006156;28;20069;-67
2023/05/21 07:36:46;;;;;;;0.08;0.08;;;16.70;99.90;;;;;;5010293;28;20485;-67
2023/05/21 07:39:11;;;;;;;0.00;0.00;;;16.80;99.90;;;;;;5005636;28;20061;-67
2023/05/21 07:41:37;;;;;;;0.10;0.10;;;16.90;99.90;;;;;;5006989;28;20112;-67
2023/05/21 07:44:03;;;;;;;1.20;0.30;;;17.00;99.90;;;;;;4996288;28;20076;-67
2023/05/21 07:46:28;;;;;;;0.20;0.20;;;17.00;99.90;;;;;;5008399;28;20049;-67
2023/05/21 07:48:54;;;;;;;2.65;1.73;;;17.00;99.90;;;;;;5010133;28;20089;-67
2023/05/21 07:51:20;;;;;;;0.28;0.28;;;17.00;99.90;;;;;;5015424;28;20413;-66
2023/05/21 07:53:45;;;;;;;0.30;0.30;;;17.10;99.90;;;;;;4996281;28;20045;-67
2023/05/21 07:56:11;;;;;;;0.45;0.32;;;17.10;99.90;;;;;;5010284;28;20085;-67
2023/05/21 07:58:37;;;;;;;0.30;0.30;;;17.10;99.90;;;;;;5011126;28;20045;-67
2023/05/21 08:01:02;;;;;;;0.20;0.17;;;17.10;99.90;;;;;;5001183;28;20042;-67
2023/05/21 08:03:29;;;;;;;0.20;0.20;;;17.10;99.90;;;;;;5005723;28;20042;-67
2023/05/21 08:05:55;;;;;;;0.00;0.00;;;17.10;99.90;;;;;;5005448;28;20054;-67
2023/05/21 08:08:21;;;;;;;0.63;0.63;;;17.10;99.90;;;;;;5007556;28;20041;-67
2023/05/21 08:10:46;;;;;;;0.00;0.00;;;17.30;99.90;;;;;;5010793;28;20816;-67
2023/05/21 08:13:13;;;;;;;1.85;0.75;;;17.30;99.90;;;;;;5007452;28;20069;-67
2023/05/21 08:15:39;;;;;;;0.00;0.00;;;17.30;99.90;;;;;;5004207;28;20121;-67
2023/05/21 08:18:05;;;;;;;0.25;0.25;;;17.30;99.90;;;;;;5003086;28;20188;-67
2023/05/21 08:20:32;;;;;;;0.40;0.40;;;17.20;99.90;;;;;;5004330;28;20102;-67
2023/05/21 08:22:59;;;;;;;0.40;0.40;;;17.20;99.90;;;;;;5002532;28;20421;-67
2023/05/21 08:25:25;;;;;;;0.30;0.30;;;17.20;99.90;;;;;;5012300;28;20431;-68
2023/05/21 08:27:51;;;;;;;0.00;0.00;;;17.10;99.90;;;;;;5006067;28;20065;-68
2023/05/21 08:30:16;;;;;;;0.10;0.10;;;17.10;99.90;;;;;;4999251;28;20494;-68
2023/05/21 08:32:42;;;;;;;0.10;0.10;;;17.10;99.90;;;;;;5009261;28;20049;-67
2023/05/21 08:35:08;;;;;;;0.28;0.28;;;17.10;99.90;;;;;;5008764;28;20049;-67
2023/05/21 08:37:33;;;;;;;1.02;0.55;;;17.10;99.90;;;;;;5001026;28;20046;-67
2023/05/21 08:39:59;;;;;;;0.10;0.10;;;17.10;99.90;;;;;;5009266;28;20053;-68
2023/05/21 08:42:35;;;;;;;0.20;0.20;;;17.10;99.90;;;;;;5015327;28;20050;-68
2023/05/21 08:45:05;;;;;;;0.00;0.00;;;17.10;99.90;;;;;;5009515;28;20057;-67
2023/05/21 08:47:34;;;;;;;0.00;0.00;;;17.10;99.90;;;;;;5008346;28;20073;-68
2023/05/21 08:50:06;;;;;;;0.10;0.10;;;17.10;99.90;;;;;;5006901;28;20050;-68
2023/05/21 08:52:32;;;;;;;0.55;0.55;;;17.20;99.90;;;;;;4996411;28;20108;-68
2023/05/21 08:54:58;;;;;;;0.22;0.22;;;17.20;99.90;;;;;;5003404;28;20128;-67
2023/05/21 08:57:26;;;;;;;0.15;0.15;;;17.20;99.90;;;;;;4998997;28;20048;-68
2023/05/21 08:59:53;;;;;;;0.08;0.08;;;17.20;99.90;;;;;;5015318;28;20046;-68
2023/05/21 09:02:18;;;;;;;0.00;0.00;;;17.30;99.90;;;;;;5006725;28;20707;-68
2023/05/21 09:04:48;;;;;;;0.00;0.00;;;17.50;99.90;;;;;;4998750;28;20112;-68
2023/05/21 09:07:14;;;;;;;0.25;0.25;;;17.50;99.90;;;;;;5005525;28;20050;-68
2023/05/21 09:10:03;;;;;;;0.00;0.00;;;17.50;99.90;;;;;;5009447;28;20490;-68
2023/05/21 09:12:30;;;;;;;0.22;0.22;;;17.40;99.90;;;;;;5000978;28;20048;-68
2023/05/21 09:14:57;;;;;;;0.50;0.32;;;17.50;99.90;;;;;;4999961;28;20042;-68
2023/05/21 09:17:23;;;;;;;0.00;0.00;;;17.50;99.90;;;;;;5000520;28;20042;-68
2023/05/21 09:20:12;;;;;;;0.00;0.00;;;17.60;99.90;;;;;;5004856;28;20096;-68
2023/05/21 09:22:45;;;;;;;0.00;0.00;;;17.70;99.90;;;;;;5005230;28;20054;-68
2023/05/21 09:25:14;;;;;;;0.00;0.00;;;17.80;99.90;;;;;;5008068;28;20041;-68
2023/05/21 09:27:40;;;;;;;0.25;0.25;;;17.80;99.90;;;;;;5008316;28;20058;-68
2023/05/21 09:30:24;;;;;;;0.20;0.20;;;17.80;99.90;;;;;;4992773;28;20540;-68
2023/05/21 09:32:57;;;;;;;0.10;0.10;;;17.90;99.90;;;;;;5005331;28;20081;-68
2023/05/21 09:35:22;;;;;;;1.95;1.40;;;17.90;99.90;;;;;;4998442;28;20129;-68
2023/05/21 09:37:51;;;;;;;0.00;0.00;;;17.90;99.90;;;;;;5005278;28;20173;-68
2023/05/21 09:40:20;;;;;;;0.00;0.00;;;18.20;99.90;;;;;;4998450;28;20115;-68
2023/05/21 09:42:53;;;;;;;0.35;0.35;;;18.40;99.90;;;;;;5005196;28;20460;-68
2023/05/21 09:45:29;;;;;;;0.10;0.10;;;18.50;99.90;;;;;;5002197;28;20049;-68
2023/05/21 09:47:55;;;;;;;0.00;0.00;;;18.60;99.90;;;;;;5007576;28;20057;-67
2023/05/21 09:50:22;;;;;;;0.57;0.38;;;18.60;99.90;;;;;;4999797;28;20049;-68
2023/05/21 09:52:51;;;;;;;0.00;0.00;;;18.90;99.90;;;;;;4996124;28;20390;-67
2023/05/21 09:55:18;;;;;;;0.00;0.00;;;19.10;99.90;;;;;;4999974;28;20077;-68
2023/05/21 09:57:46;;;;;;;0.00;0.00;;;19.30;99.90;;;;;;5002739;28;20050;-68
2023/05/21 10:00:22;;;;;;;0.00;0.00;;;19.50;99.90;;;;;;4993839;28;20047;-67
2023/05/21 10:02:53;;;;;;;0.10;0.10;;;19.50;99.90;;;;;;5009027;28;20060;-67
2023/05/21 10:05:19;;;;;;;3.30;0.47;;;19.60;99.90;;;;;;5009964;28;20092;-68
2023/05/21 10:07:50;;;;;;;0.25;0.25;;;19.80;99.90;;;;;;5003498;28;20046;-68
2023/05/21 10:10:19;;;;;;;0.00;0.00;;;20.00;99.90;;;;;;5002943;28;20536;-68
2023/05/21 10:12:56;;;;;;;0.00;0.00;;;20.20;99.90;;;;;;4998663;28;20038;-67
2023/05/21 10:15:24;;;;;;;0.10;0.10;;;20.30;99.90;;;;;;5003648;28;20168;-67
2023/05/21 10:17:51;;;;;;;0.68;0.20;;;20.30;99.90;;;;;;5004461;28;20528;-67
2023/05/21 10:20:17;;;;;;;0.10;0.10;;;20.20;99.90;;;;;;5002571;28;20044;-66
2023/05/21 10:22:43;;;;;;;0.10;0.10;;;20.20;99.90;;;;;;5008514;28;20124;-68
2023/05/21 10:25:11;;;;;;;0.28;0.28;;;20.30;99.90;;;;;;5009234;28;20042;-68
2023/05/21 10:27:37;;;;;;;0.32;0.28;;;20.40;99.90;;;;;;4998873;28;20049;-67
2023/05/21 10:30:05;;;;;;;0.13;0.13;;;20.40;99.90;;;;;;5004304;28;20042;-68
2023/05/21 10:32:31;;;;;;;0.22;0.15;;;20.30;99.90;;;;;;5003707;28;20038;-68
2023/05/21 10:34:57;;;;;;;0.52;0.52;;;20.50;99.90;;;;;;5001797;28;20045;-68
2023/05/21 10:37:25;;;;;;;0.60;0.45;;;20.50;99.90;;;;;;5006149;28;20045;-68
2023/05/21 10:39:51;;;;;;;0.05;0.05;;;20.50;99.90;;;;;;5007304;28;20068;-68
2023/05/21 10:42:22;;;;;;;0.00;0.00;;;20.40;99.90;;;;;;5005858;28;20481;-67
2023/05/21 10:45:00;;;;;;;0.08;0.08;;;20.40;99.90;;;;;;5000654;28;20042;-68
2023/05/21 10:47:44;;;;;;;0.35;0.35;;;20.30;99.90;;;;;;5009419;28;20050;-68
2023/05/21 10:50:24;;;;;;;0.00;0.00;;;20.30;99.90;;;;;;5005678;28;20075;-67
2023/05/21 10:53:18;;;;;;;0.17;0.17;;;20.30;99.90;;;;;;4999273;28;20099;-67
2023/05/21 10:55:57;;;;;;;0.00;0.00;;;20.10;99.90;;;;;;5004564;28;20045;-67
2023/05/21 10:58:30;;;;;;;0.00;0.00;;;20.10;99.90;;;;;;5006382;28;20049;-67
2023/05/21 11:00:56;;;;;;;0.00;0.00;;;20.10;99.90;;;;;;5001461;28;20088;-67
2023/05/21 11:03:22;;;;;;;0.05;0.05;;;20.30;99.90;;;;;;5007585;28;20092;-68
2023/05/21 11:05:54;;;;;;;0.10;0.10;;;20.30;99.90;;;;;;5007443;28;20425;-67
2023/05/21 11:08:30;;;;;;;0.13;0.13;;;20.30;99.90;;;;;;5008194;28;20034;-68
2023/05/21 11:10:57;;;;;;;0.00;0.00;;;20.10;99.90;;;;;;5007464;28;20069;-66
2023/05/21 11:13:26;;;;;;;3.50;0.20;;;20.40;99.90;;;;;;4999374;28;20506;-68
2023/05/21 11:15:57;;;;;;;0.00;0.00;;;20.60;99.90;;;;;;5010135;28;20398;-67
2023/05/21 11:18:38;;;;;;;0.00;0.00;;;20.80;99.90;;;;;;5003606;28;20082;-68
2023/05/21 11:21:12;;;;;;;0.03;0.03;;;20.70;99.90;;;;;;5008213;28;20616;-67
2023/05/21 11:23:49;;;;;;;0.10;0.10;;;21.00;99.90;;;;;;5011834;28;20053;-68
2023/05/21 11:26:53;;;;;;;0.00;0.00;;;21.10;99.90;;;;;;5001884;28;20667;-67
2023/05/21 11:29:19;;;;;;;;;;;21.00;99.90;;;;;;5007970;28;20057;-68
2023/05/21 11:31:47;;;;;;;0.10;0.10;;;21.30;99.90;;;;;;5006218;28;19921;-68
2023/05/21 11:34:20;;;;;;;0.05;0.05;;;21.40;99.90;;;;;;5011400;28;20052;-68
2023/05/21 11:36:47;;;;;;;0.47;0.47;;;21.50;99.90;;;;;;5012228;28;20129;-68
2023/05/21 11:39:16;;;;;;;0.00;0.00;;;21.80;99.90;;;;;;5002736;28;20060;-67
2023/05/21 11:41:52;;;;;;;0.20;0.20;;;21.70;99.90;;;;;;4998697;28;20041;-68
2023/05/21 11:44:20;;;;;;;8.30;0.20;;;21.90;99.90;;;;;;5002309;28;20108;-67
2023/05/21 11:46:47;;;;;;;0.30;0.30;;;22.00;99.90;;;;;;5000337;28;20056;-68
2023/05/21 11:49:13;;;;;;;0.00;0.00;;;21.80;99.90;;;;;;5008517;28;20046;-68
2023/05/21 11:51:39;;;;;;;0.40;0.40;;;22.00;99.90;;;;;;5009265;28;20437;-68
2023/05/21 11:54:08;;;;;;;0.35;0.35;;;21.90;99.90;;;;;;5001149;28;20532;-68
2023/05/21 11:56:35;;;;;;;0.20;0.20;;;22.20;99.90;;;;;;5005637;28;20070;-68
2023/05/21 11:59:01;;;;;;;0.00;0.00;;;22.00;99.90;;;;;;5002963;28;20056;-68
2023/05/21 12:01:27;;;;;;;0.10;0.10;;;22.40;99.90;;;;;;5003387;28;20045;-68
2023/05/21 12:03:53;;;;;;;0.20;0.20;;;22.40;99.90;;;;;;5009446;28;20045;-68
2023/05/21 12:06:25;;;;;;;0.10;0.10;;;22.50;99.90;;;;;;4997858;28;20042;-68
2023/05/21 12:08:51;;;;;;;0.20;0.20;;;22.70;99.90;;;;;;5005696;28;20073;-68
2023/05/21 12:11:17;;;;;;;0.10;0.10;;;22.80;99.90;;;;;;5002533;28;20088;-67
2023/05/21 12:13:42;;;;;;;0.10;0.10;;;22.80;99.90;;;;;;5003499;28;20367;-68
2023/05/21 12:16:08;;;;;;;0.08;0.08;;;22.80;99.90;;;;;;5010229;28;20097;-68
2023/05/21 12:18:35;;;;;;;0.00;0.00;;;23.00;99.90;;;;;;5017129;28;20038;-67
2023/05/21 12:21:01;;;;;;;0.75;0.32;;;23.00;99.90;;;;;;4998552;28;20082;-67
2023/05/21 12:23:26;;;;;;;4.78;2.55;;;23.00;99.90;;;;;;5007599;28;20084;-68
2023/05/21 12:25:52;;;;;;;11.38;0.93;;;23.00;99.90;;;;;;5005417;28;20401;-67
2023/05/21 12:28:20;;;;;;;0.25;0.13;;;23.30;99.90;;;;;;5001650;28;20077;-67
2023/05/21 12:30:46;;;;;;;0.00;0.00;;;23.40;99.90;;;;;;5005153;28;20136;-68
2023/05/21 12:33:12;;;;;;;0.05;0.05;;;23.20;99.90;;;;;;5001592;28;20042;-68
2023/05/21 12:35:38;;;;;;;1.25;0.22;;;23.40;99.90;;;;;;5006616;28;20095;-68
2023/05/21 12:38:06;;;;;;;0.03;0.03;;;23.30;99.90;;;;;;4992521;28;20651;-67
2023/05/21 12:40:37;;;;;;;0.20;0.20;;;23.50;99.90;;;;;;5009580;28;20041;-68
2023/05/21 12:43:04;;;;;;;0.20;0.20;;;23.40;99.90;;;;;;5008756;28;20494;-68
2023/05/21 12:45:31;;;;;;;0.05;0.05;;;23.20;99.90;;;;;;5018040;28;20458;-68
2023/05/21 12:47:59;;;;;;;0.00;0.00;;;23.20;99.90;;;;;;4999347;28;20073;-68
2023/05/21 12:50:25;;;;;;;0.00;0.00;;;23.50;99.90;;;;;;5006350;28;20045;-67